Latest Weather Observations for Mount Isa

IDQ60801

Issued at 10:32 am EST Wednesday 10 February 2016 (issued every 30 minutes, with the page automatically refreshed every 10 minutes)

About weather observations | Map of weather stations | Latest weather observations for QLD | Other Formats
Station Details ID: 029127 Name: MOUNT ISA AERO Lat: -20.68 Lon: 139.49 Height: 340.3 m
Data from the previous 72 hours. | See also: Recent months at Mount Isa
Date/Time
EST
Temp
°C
App
Temp
°C
Dew
Point
Rel
Hum
%
Delta-T
°C
Wind Press
QNH
hPa
Press
MSL
hPa
Rain
since 9 am
mm
Dir
 
Spd
km/h
Gust
km/h
Spd
kts
Gust
kts
10/10:30am 30.8 32.9 21.0 56 6.6 E 11 17 6 9 1010.6 - 0.0
10/10:00am 30.6 33.0 22.2 61 5.8 E 13 19 7 10 1010.8 - 0.0
10/09:30am 29.7 31.7 20.8 58 6.0 E 11 17 6 9 1010.9 - 0.0
10/09:00am 28.9 32.6 22.6 69 4.3 SSW 7 11 4 6 1010.7 1008.3 27.6
10/08:30am 27.0 30.5 22.2 75 3.3 SSE 7 11 4 6 1010.6 - 27.6
10/08:08am 26.5 30.0 22.8 80 2.5 SSE 9 11 5 6 1010.4 - 27.6
10/08:00am 26.3 29.6 22.6 80 2.5 S 9 9 5 5 1010.4 - 27.6
10/07:30am 25.4 29.7 23.3 88 1.4 S 6 9 3 5 1010.2 - 27.6
10/07:00am 24.1 28.1 23.1 94 0.7 SE 7 9 4 5 1009.5 - 27.6
10/06:30am 23.6 28.8 22.8 95 0.5 CALM 0 0 0 0 1009.3 - 27.6
10/06:00am 23.5 28.7 22.8 96 0.5 CALM 0 0 0 0 1008.9 1006.4 27.6
10/05:30am 23.6 27.9 22.6 94 0.7 SSW 4 9 2 5 1008.6 - 27.6
10/05:00am 23.6 28.5 22.4 93 0.8 CALM 0 0 0 0 1008.7 - 27.6
10/04:30am 23.7 28.4 22.7 94 0.7 SW 2 7 1 4 1008.7 - 27.6
10/04:00am 23.8 28.9 22.6 93 0.8 CALM 0 2 0 1 1008.8 - 27.6
10/03:30am 24.2 27.5 22.6 91 1.1 N 9 11 5 6 1008.9 - 27.6
10/03:00am 24.7 28.4 22.6 88 1.4 NE 7 9 4 5 1009.2 1006.7 27.6
10/02:30am 24.9 28.5 22.4 86 1.7 ENE 7 11 4 6 1009.2 - 27.6
10/02:00am 25.0 27.5 22.5 86 1.7 ENE 13 15 7 8 1009.4 - 27.6
10/01:30am 25.2 28.5 22.5 85 1.8 NE 9 13 5 7 1009.3 - 27.6
10/01:00am 25.6 29.2 23.1 86 1.7 NNE 9 11 5 6 1009.4 - 27.6
10/12:30am 25.7 29.3 23.0 85 1.9 NE 9 13 5 7 1009.9 - 27.6
10/12:00am 26.0 28.6 22.7 82 2.3 ENE 13 19 7 10 1009.8 1007.3 27.6
 
Date/Time
EST
Temp
°C
App
Temp
°C
Dew
Point
Rel
Hum
%
Delta-T
°C
Wind Press
QNH
hPa
Press
MSL
hPa
Rain
since 9 am
mm
Dir
 
Spd
km/h
Gust
km/h
Spd
kts
Gust
kts
09/11:30pm 25.8 29.6 23.5 87 1.6 NE 9 13 5 7 1009.9 - 27.6
09/11:00pm 25.8 30.3 24.0 90 1.3 NNE 7 9 4 5 1009.7 - 27.6
09/10:30pm 25.9 30.6 23.9 89 1.4 N 6 7 3 4 1009.5 - 27.6
09/10:00pm 25.7 31.6 24.1 91 1.1 CALM 0 0 0 0 1009.2 - 27.6
09/09:30pm 25.8 31.5 23.7 88 1.5 CALM 0 0 0 0 1009.2 - 27.6
09/09:00pm 25.4 30.1 23.3 88 1.4 WNW 4 6 2 3 1009.4 1006.9 27.6
09/08:30pm 25.6 29.4 22.7 84 2.0 SE 7 11 4 6 1009.6 - 27.6
09/08:00pm 25.3 30.2 23.0 87 1.6 NNW 2 7 1 4 1009.5 - 27.6
09/07:30pm 25.0 27.6 22.7 87 1.6 NNW 13 19 7 10 1009.1 - 27.6
09/07:00pm 24.8 27.2 23.0 90 1.2 N 15 20 8 11 1008.9 - 27.6
09/06:30pm 24.5 27.5 23.3 93 0.8 N 13 19 7 10 1008.6 - 27.4
09/06:00pm 23.9 27.2 22.5 92 1.0 ESE 9 13 5 7 1009.1 1006.6 27.2
09/05:30pm 23.3 27.1 21.7 91 1.1 ESE 4 9 2 5 1009.2 - 26.6
09/05:26pm 23.4 26.9 21.8 91 1.1 SE 6 7 3 4 1009.1 - 26.6
09/05:00pm 23.3 23.0 20.4 84 1.9 SW 22 32 12 17 1009.8 - 24.2
09/04:48pm 24.1 21.8 20.2 79 2.6 WSW 32 35 17 19 1010.0 - 16.4
09/04:30pm 23.3 25.0 21.0 87 1.5 S 13 15 7 8 1008.6 - 13.6
09/04:28pm 23.3 23.7 21.0 87 1.5 SSE 20 28 11 15 1008.5 - 13.4
09/04:11pm 24.2 22.5 21.3 84 1.9 S 32 35 17 19 1008.4 - 12.0
09/04:00pm 24.3 22.3 21.2 83 2.1 S 33 44 18 24 1008.4 - 11.8
09/03:50pm 24.3 21.4 21.6 85 1.8 S 39 43 21 23 1008.4 - 10.6
09/03:30pm 24.9 21.2 22.6 87 1.6 SSW 46 57 25 31 1008.3 - 4.0
09/03:24pm 25.3 21.5 22.4 84 2.0 SSW 46 57 25 31 1008.3 - 1.4
09/03:11pm 28.5 26.2 21.3 65 4.9 SW 35 63 19 34 1007.6 - 0.0
09/03:09pm 30.2 28.6 20.7 56 6.4 SW 30 37 16 20 1007.5 - 0.0
09/03:00pm 35.4 36.1 18.0 35 11.5 ENE 11 15 6 8 1007.1 1004.6 0.0
09/02:30pm 37.0 36.5 19.9 36 11.6 NE 22 26 12 14 1007.3 - 0.0
09/02:00pm 36.7 36.2 18.7 34 12.0 E 19 30 10 16 1007.8 - 0.0
09/01:30pm 36.6 36.5 20.0 38 11.2 ENE 20 30 11 16 1008.7 - 0.0
09/01:00pm 35.1 35.5 19.1 39 10.7 NE 15 22 8 12 1009.3 - 0.0
09/12:30pm 35.7 35.6 20.0 39 10.6 NE 20 32 11 17 1009.5 - 0.0
09/12:00pm 35.5 34.8 19.4 38 10.8 ENE 22 28 12 15 1009.9 1007.4 0.0
09/11:30am 35.2 35.6 20.7 42 9.9 ENE 19 28 10 15 1010.1 - 0.0
09/11:00am 34.6 35.4 21.3 46 9.1 ESE 19 28 10 15 1010.4 - 0.0
09/10:30am 33.3 33.8 20.8 48 8.5 E 19 26 10 14 1010.6 - 0.0
09/10:00am 32.8 33.0 21.3 50 7.8 E 22 28 12 15 1010.8 - 0.0
09/09:30am 31.5 32.0 21.1 54 7.1 ENE 20 28 11 15 1011.0 - 0.0
09/09:00am 31.4 31.1 20.4 52 7.4 ESE 22 30 12 16 1010.8 1008.4 0.0
09/08:30am 30.6 30.4 20.5 54 6.8 E 22 32 12 17 1010.7 - 0.0
09/08:00am 29.8 31.0 20.6 57 6.2 E 15 20 8 11 1010.4 - 0.0
09/07:30am 29.0 29.7 20.4 59 5.7 E 17 26 9 14 1010.3 - 0.0
09/07:00am 28.5 29.2 20.5 62 5.3 ESE 17 24 9 13 1010.0 - 0.0
09/06:30am 28.2 28.8 20.2 62 5.3 ESE 17 26 9 14 1009.6 - 0.0
09/06:00am 28.4 28.7 20.4 62 5.3 ESE 19 28 10 15 1009.2 1006.7 0.0
09/05:30am 28.5 28.7 20.2 60 5.5 E 19 30 10 16 1008.9 - 0.0
09/05:00am 28.7 29.8 20.4 60 5.5 E 15 19 8 10 1008.9 - 0.0
09/04:30am 28.9 29.6 20.4 60 5.7 E 17 26 9 14 1008.6 - 0.0
09/04:00am 29.2 28.9 20.4 59 5.9 E 22 32 12 17 1008.6 - 0.0
09/03:30am 29.9 27.5 19.9 55 6.6 E 32 41 17 22 1008.6 - 0.0
09/03:00am 30.4 30.6 18.5 49 7.8 SE 15 26 8 14 1008.4 1005.9 0.0
09/02:30am 30.7 30.3 18.1 47 8.2 SSE 17 26 9 14 1008.3 - 0.0
09/02:00am 31.3 30.7 17.6 44 8.9 SSE 17 26 9 14 1008.3 - 0.0
09/01:30am 31.9 30.0 16.6 39 9.8 SSE 22 32 12 17 1008.7 - 0.0
09/01:00am 31.9 31.0 15.8 38 10.2 SSE 15 22 8 12 1009.1 - 0.0
09/12:30am 31.6 31.5 16.0 39 9.9 S 11 15 6 8 1009.2 - 0.0
09/12:00am 32.2 32.0 15.7 37 10.4 SSE 11 15 6 8 1009.6 1007.1 0.0
 
Date/Time
EST
Temp
°C
App
Temp
°C
Dew
Point
Rel
Hum
%
Delta-T
°C
Wind Press
QNH
hPa
Press
MSL
hPa
Rain
since 9 am
mm
Dir
 
Spd
km/h
Gust
km/h
Spd
kts
Gust
kts
08/11:30pm 32.7 31.6 15.2 34 11.0 SSE 15 20 8 11 1009.9 - 0.0
08/11:00pm 33.0 31.3 14.6 33 11.5 SSE 17 20 9 11 1009.8 - 0.0
08/10:30pm 33.3 31.1 13.4 30 12.2 SSE 17 22 9 12 1009.8 - 0.0
08/10:00pm 34.0 31.9 13.5 29 12.6 SSE 17 24 9 13 1009.6 - 0.0
08/09:30pm 34.2 32.9 13.6 29 12.7 SSE 13 19 7 10 1009.4 - 0.0
08/09:00pm 34.5 32.7 14.4 30 12.6 S 17 20 9 11 1009.1 1006.6 0.0
08/08:30pm 34.8 33.3 15.2 31 12.4 S 17 24 9 13 1008.7 - 0.0
08/08:00pm 34.9 33.6 15.7 31 12.2 S 17 24 9 13 1008.3 - 0.0
08/07:30pm 34.9 33.0 15.7 31 12.2 S 20 24 11 13 1007.9 - 0.0
08/07:00pm 35.2 34.4 16.0 31 12.3 SSE 15 28 8 15 1007.6 - 0.0
08/06:30pm 36.0 36.4 15.2 29 13.2 SSE 7 9 4 5 1007.3 - 0.0
08/06:00pm 36.5 36.0 15.0 27 13.7 SSE 11 15 6 8 1007.1 1004.6 0.0
08/05:30pm 36.7 37.5 16.3 30 13.2 ESE 7 9 4 5 1007.0 - 0.0
08/05:00pm 36.7 36.3 15.2 27 13.7 SE 11 20 6 11 1007.1 - 0.0
08/04:30pm 37.6 38.2 15.4 27 14.2 NNE 6 13 3 7 1007.2 - 0.0
08/04:00pm 37.1 37.0 15.0 27 14.0 ENE 9 15 5 8 1007.3 - 0.0
08/03:30pm 37.0 36.9 16.0 28 13.5 ENE 11 17 6 9 1007.6 - 0.0
08/03:00pm 37.4 36.8 14.6 25 14.4 E 11 17 6 9 1007.8 1005.4 0.0
08/02:30pm 36.5 36.3 15.6 29 13.4 SSE 11 17 6 9 1008.3 - 0.0
08/02:00pm 36.8 36.5 16.4 30 13.2 E 13 20 7 11 1008.9 - 0.0
08/01:30pm 37.1 37.4 17.1 30 13.1 ESE 11 20 6 11 1009.3 - 0.0
08/01:00pm 36.8 36.5 17.4 32 12.7 ESE 15 22 8 12 1009.8 - 0.0
08/12:30pm 36.6 36.3 18.2 34 12.2 E 17 26 9 14 1010.3 - 0.0
08/12:00pm 35.5 35.0 17.7 35 11.7 ESE 17 26 9 14 1010.8 1008.4 0.0
08/11:30am 35.2 35.7 18.3 36 11.2 ESE 13 20 7 11 1011.2 - 0.0
08/11:00am 34.3 34.0 19.5 41 9.9 E 20 26 11 14 1011.4 - 0.0
08/10:30am 33.0 34.0 19.5 45 9.0 ESE 13 19 7 10 1011.6 - 0.0
08/10:00am 32.5 33.2 19.7 46 8.5 E 15 22 8 12 1011.6 - 0.0
08/09:30am 31.7 32.4 19.7 49 8.0 ESE 15 22 8 12 1011.6 - 0.0
08/09:00am 31.2 31.5 19.5 49 7.8 ESE 17 22 9 12 1011.5 1009.0 0.0
08/08:30am 30.3 31.4 19.6 52 7.1 SE 13 19 7 10 1011.5 - 0.0
08/08:00am 29.3 29.8 19.3 55 6.6 SE 15 22 8 12 1011.3 - 0.0
08/07:30am 28.3 29.2 19.2 57 6.0 SSE 13 15 7 8 1011.0 - 0.0
08/07:00am 27.5 29.0 19.0 59 5.5 SSE 9 11 5 6 1010.6 - 0.0
08/06:30am 26.9 28.1 19.0 62 5.1 SSE 11 15 6 8 1010.3 - 0.0
08/06:00am 26.9 27.9 18.7 60 5.3 SSE 11 13 6 7 1010.1 1007.6 0.0
08/05:30am 27.2 28.7 18.8 60 5.5 SE 9 11 5 6 1009.9 - 0.0
08/05:00am 27.5 28.8 18.5 58 5.8 SSE 9 11 5 6 1009.8 - 0.0
08/04:30am 28.2 29.4 18.3 55 6.4 SSE 9 13 5 7 1009.6 - 0.0
08/04:00am 28.5 29.0 18.3 54 6.6 SSE 13 15 7 8 1009.5 - 0.0
08/03:30am 28.8 29.3 18.3 53 6.8 SSE 13 17 7 9 1009.5 - 0.0
08/03:00am 28.8 29.3 18.3 53 6.8 SSE 13 19 7 10 1009.6 1007.1 0.0
08/02:30am 29.4 29.1 18.2 51 7.3 SSE 17 24 9 13 1009.8 - 0.0
08/02:00am 30.0 29.2 18.1 49 7.7 SSE 19 26 10 14 1010.0 - 0.0
08/01:30am 30.4 29.3 17.8 46 8.1 SSE 20 28 11 15 1010.3 - 0.0
08/01:00am 30.9 29.7 17.6 45 8.6 SSE 20 26 11 14 1010.6 - 0.0
08/12:30am 31.1 29.9 17.4 44 8.8 SSE 20 30 11 16 1010.7 - 0.0
08/12:00am 31.5 30.1 16.6 40 9.5 SSE 19 28 10 15 1010.7 1008.3 0.0
 
Date/Time
EST
Temp
°C
App
Temp
°C
Dew
Point
Rel
Hum
%
Delta-T
°C
Wind Press
QNH
hPa
Press
MSL
hPa
Rain
since 9 am
mm
Dir
 
Spd
km/h
Gust
km/h
Spd
kts
Gust
kts
07/11:30pm 31.9 30.7 16.2 38 10.0 SSE 17 24 9 13 1010.8 - 0.0
07/11:00pm 32.6 30.6 15.6 36 10.7 S 20 26 11 14 1010.6 - 0.0
07/10:30pm 33.0 30.8 15.0 33 11.3 S 20 32 11 17 1010.2 - 0.0
07/10:00pm 33.2 30.0 15.2 33 11.3 S 26 33 14 18 1009.7 - 0.0
07/09:30pm 33.3 31.2 15.3 34 11.3 S 20 28 11 15 1009.4 - 0.0
07/09:00pm 33.7 31.4 14.2 30 12.1 S 19 24 10 13 1009.1 1006.6 0.0
07/08:30pm 34.1 31.6 13.5 28 12.7 S 19 24 10 13 1008.9 - 0.0
07/08:00pm 34.9 32.3 13.7 28 13.1 S 20 30 11 16 1008.3 - 0.0
07/07:30pm 35.3 32.6 13.5 27 13.5 S 20 28 11 15 1007.7 - 0.0
07/07:00pm 36.1 34.6 13.0 25 14.2 SSE 13 19 7 10 1007.3 - 0.0
07/06:30pm 36.7 35.0 13.5 25 14.4 SE 15 19 8 10 1006.9 - 0.0
07/06:00pm 37.1 35.4 12.5 23 15.1 SSE 13 19 7 10 1006.6 1004.1 0.0
07/05:30pm 36.2 34.1 12.4 24 14.5 SSE 15 19 8 10 1006.4 - 0.0
07/05:00pm 37.1 35.4 12.5 23 15.1 S 13 19 7 10 1006.3 - 0.0
07/04:30pm 37.1 35.8 12.5 23 15.1 SSW 11 19 6 10 1006.3 - 0.0
07/04:00pm 36.8 35.6 12.9 24 14.7 SE 11 20 6 11 1006.5 - 0.0
07/03:30pm 37.4 36.6 12.8 23 15.2 SE 9 15 5 8 1006.8 - 0.0
07/03:00pm 37.0 36.0 12.4 23 15.1 ESE 9 19 5 10 1007.1 1004.6 0.0
07/02:30pm 38.0 36.6 13.3 23 15.4 SE 13 26 7 14 1007.3 - 0.0
07/02:00pm 36.8 34.1 13.5 24 14.5 S 20 28 11 15 1007.7 - 0.0
07/01:30pm 37.4 37.0 14.0 24 14.7 S 9 17 5 9 1008.1 - 0.0
07/01:00pm 36.5 36.2 14.5 27 13.8 ESE 9 17 5 9 1008.5 - 0.0
07/12:30pm 36.4 35.7 15.5 29 13.3 ESE 13 26 7 14 1008.7 - 0.0
07/12:00pm 35.3 34.1 16.1 32 12.3 SE 17 26 9 14 1009.1 1006.6 0.0
07/11:30am 34.9 34.9 17.2 35 11.5 SE 13 22 7 12 1009.3 - 0.0
07/11:00am 34.4 33.2 17.6 37 11.0 SE 20 33 11 18 1009.5 - 0.0

Other Formats:

Comma delimited format used in spreadsheet applications
http://www.bom.gov.au/fwo/IDQ60801/IDQ60801.94332.axf

JavaScript Object Notation format (JSON) in row-major order
http://www.bom.gov.au/fwo/IDQ60801/IDQ60801.94332.json